Arbuckle, West Virginia
Current Conditions -  °F | °C
As of 11:35 PM on Monday 20 Oct 2014 (Local Time) from K3I2 Reporting Station
Scattered Clouds Scattered Clouds  
Wind Chill: 13°   Ceiling: Unl
Heat Index: 13°   Visibility: 10mi
Dew Point: 10°   Wind: 6mph
Humidity: 82%   Direction: 220°SW
Pressure: 29.92"   Gusts: NA
Location:  38.7463°N, 81.8897°W
Report Text: K3I2 210335Z AUTO 22005KT 10SM SCT060 SCT120 13/10 A2992 RMK AO2
Loading
Personal Weather Stations






























Interactive Weather Map
Tropical Storm Tracking
New forecast layout! Learn more

10-Day Weather Forecast

Advertisements
Track Severe Weather on mobile